General Heriberto Jara International Airport
MMVR : now visible

Airfield :











YOU CAN JOIN US ON...

 
LOGIN :

Register | Disclaimer

   EN    FR    IT 

 









Legend :    VFR   Marginal VFR   IFR   Intensive IFR   Very Intensive IFR
Visi :
Ceiling :
>= 8 km
>= 3000ft
5 to 8 km
1000 to 3000 ft
1500m to 5 km
500 to 1000 ft
800 to 1500m
200 to 500 ft
< 800m
< 200 ft
Symbols :   Thunderstorms  Fog  Heavy snow  Heavy precipitations  Wind > 20 kt







- Airport Elevation : 90 ft
- IATA code : VER


MMVR - General Heriberto Jara International

CURRENT METAR :
  • 191747Z 07011KT 6SM FEW008 32/26 A2992 RMK SLP112 57001 920 8/100 HZY

EXPIRED METARs :
  • 191647Z 02008KT 5SM FEW008 32/25 A2993 RMK 8/100 HZY
  • 191547Z 05005KT 6SM FEW008 31/26 A2992 RMK 8/100 HZY

TAF TAF MMVR
Valid from the 19 at 18:00 until the 20 at 18:00 UTC


191703Z 1918/2018 02012KT 5SM HZ SCT010 TX34/1920Z TN24/2012Z
FM200600 00000KT 5SM VC RA BKN015
PROB40 2010/2014 2SM RA BKN010CB
FM201500 04010KT P6SM SCT015 BKN080
No reported NOTAMs for that airfield.



MET'MAP, your aeronautical weather chart ! - Copyright ORBIFLY December 2007 - Disclaimer

ORBIFLY MET'MAP TEAM :

Programming & Development : Alexandra Zaïnal
Concept & Development : Baudouin d'Aumeries
Co-Development & Prog : Marc-Olivier Méhu
Technical & hardware support : Manuel Goepfert

Contact : metmap@orbifly.com




SOURCES & CREDITS :

   NOAA       Earth
Advisory